Time;durP1;ratioP1;P1;durP2;ratioP2;P2;SDS_P1;SDS_P2;PMS_P1;PMS_P2;Temp;Humidity;BMP_temperature;BMP_pressure;BME280_temperature;BME280_humidity;BME280_pressure;Samples;Min_cycle;Max_cycle;Signal;HPM_P1;HPM_P2
2022/01/06 00:01:19;;;;;;;3.47;1.73;;;;;;;0.31;100.00;95973.59;5071577;27;101829;-55
2022/01/06 00:03:47;;;;;;;3.87;2.13;;;;;;;0.29;100.00;95973.00;5071967;27;105177;-53
2022/01/06 00:06:14;;;;;;;4.60;1.90;;;;;;;0.21;100.00;95976.59;5070950;27;105102;-55
2022/01/06 00:08:42;;;;;;;4.03;1.70;;;;;;;0.26;100.00;95979.41;5073033;27;101882;-55
2022/01/06 00:11:37;;;;;;;4.33;1.77;;;;;;;0.31;100.00;95981.44;5072664;27;103574;-55
2022/01/06 00:14:10;;;;;;;3.67;1.43;;;;;;;0.35;100.00;95986.09;5069345;27;106216;-54
2022/01/06 00:16:44;;;;;;;4.03;1.40;;;;;;;0.39;100.00;95978.66;5071473;27;101861;-55
2022/01/06 00:24:39;;;;;;;2.30;1.87;;;;;;;0.40;100.00;95981.06;5071427;27;104900;-53
2022/01/06 00:27:08;;;;;;;2.50;1.60;;;;;;;0.53;100.00;95975.06;5070524;27;105731;-53
2022/01/06 00:29:35;;;;;;;3.13;1.87;;;;;;;0.47;100.00;95984.50;5070841;27;101833;-54
2022/01/06 00:32:02;;;;;;;3.53;1.60;;;;;;;0.49;100.00;95985.09;5071044;27;105171;-54
2022/01/06 00:34:29;;;;;;;4.33;1.70;;;;;;;0.47;100.00;95971.44;5070782;27;105302;-55
2022/01/06 00:36:56;;;;;;;4.27;1.70;;;;;;;0.54;100.00;95977.47;5070578;27;101963;-54
2022/01/06 00:39:27;;;;;;;1.50;1.40;;;;;;;0.52;100.00;95974.25;5071031;27;104899;-53
2022/01/06 00:41:57;;;;;;;2.90;1.40;;;;;;;0.47;100.00;95979.28;5073822;27;103836;-55
2022/01/06 00:44:27;;;;;;;1.83;1.50;;;;;;;0.56;100.00;95979.91;5071272;27;105655;-52
2022/01/06 00:46:54;;;;;;;5.60;1.80;;;;;;;0.48;100.00;95972.22;5070194;27;105146;-56
2022/01/06 00:49:23;;;;;;;2.30;1.70;;;;;;;0.43;100.00;95974.63;5072249;27;102071;-53
2022/01/06 00:51:50;;;;;;;4.40;1.67;;;;;;;0.41;100.00;95977.47;5070907;27;104778;-54
2022/01/06 00:54:17;;;;;;;2.87;1.90;;;;;;;0.43;100.00;95974.63;5070273;27;105333;-55
2022/01/06 00:56:45;;;;;;;2.80;1.40;;;;;;;0.45;100.00;95977.88;5070739;27;101940;-55
2022/01/06 00:59:17;;;;;;;1.87;1.57;;;;;;;0.50;100.00;95970.22;5070697;27;103974;-55
2022/01/06 01:01:45;;;;;;;2.17;1.60;;;;;;;0.50;100.00;95970.22;5069400;27;105191;-55
2022/01/06 01:04:12;;;;;;;1.50;1.40;;;;;;;0.51;100.00;95977.06;5074335;27;101831;-55
2022/01/06 01:06:39;;;;;;;3.10;1.30;;;;;;;0.59;100.00;95980.31;5069843;27;105081;-54
2022/01/06 01:09:22;;;;;;;3.33;1.43;;;;;;;0.65;100.00;95978.69;5070375;27;101895;-52
2022/01/06 01:11:51;;;;;;;2.40;1.50;;;;;;;0.65;100.00;95981.31;5072154;27;102911;-54
2022/01/06 01:14:25;;;;;;;1.83;1.30;;;;;;;0.63;100.00;95981.53;5069954;27;102806;-54
2022/01/06 01:16:56;;;;;;;2.00;1.40;;;;;;;0.69;100.00;95985.13;5072009;27;102406;-55
2022/01/06 01:19:30;;;;;;;1.70;1.10;;;;;;;0.73;100.00;95992.38;5070508;27;105468;-53
2022/01/06 01:21:58;;;;;;;1.70;1.00;;;;;;;0.70;100.00;95997.22;5070740;27;104475;-54
2022/01/06 01:24:26;;;;;;;1.07;1.00;;;;;;;0.68;100.00;95994.00;5069949;27;101861;-54
2022/01/06 01:26:53;;;;;;;3.37;1.40;;;;;;;0.66;100.00;95991.56;5073102;27;104866;-55
2022/01/06 01:29:20;;;;;;;1.87;1.10;;;;;;;0.68;100.00;95994.81;5070095;27;103794;-54
2022/01/06 01:31:51;;;;;;;1.97;1.30;;;;;;;0.67;100.00;96000.25;5069814;27;104510;-54
2022/01/06 01:34:23;;;;;;;1.87;1.00;;;;;;;0.64;100.00;95998.00;5069678;27;105758;-53
2022/01/06 01:36:50;;;;;;;4.43;1.17;;;;;;;0.68;100.00;96001.84;5069788;27;101805;-55
2022/01/06 01:39:17;;;;;;;3.27;1.00;;;;;;;0.68;100.00;96007.09;5070308;27;106091;-49
2022/01/06 01:41:46;;;;;;;3.03;1.20;;;;;;;0.68;100.00;96004.47;5069205;27;106126;-51
2022/01/06 01:44:15;;;;;;;3.03;1.50;;;;;;;0.74;100.00;96003.66;5070281;27;102062;-53
2022/01/06 01:46:46;;;;;;;2.20;0.87;;;;;;;0.75;100.00;96000.84;5069956;27;103591;-53
2022/01/06 01:49:29;;;;;;;2.90;1.23;;;;;;;0.79;100.00;96002.09;5073009;27;106716;-55
2022/01/06 01:51:58;;;;;;;1.20;0.90;;;;;;;0.82;100.00;96008.72;5071058;27;104097;-53
2022/01/06 01:54:25;;;;;;;1.77;1.00;;;;;;;0.87;100.00;96016.75;5069273;27;105710;-53
2022/01/06 01:56:53;;;;;;;1.70;1.00;;;;;;;0.88;100.00;96007.94;5069815;27;101838;-53
2022/01/06 01:59:20;;;;;;;1.80;0.90;;;;;;;0.88;100.00;96015.78;5070184;27;105293;-53
2022/01/06 02:01:47;;;;;;;2.43;0.90;;;;;;;0.93;100.00;96016.78;5069015;27;105141;-54
2022/01/06 02:04:14;;;;;;;1.80;0.97;;;;;;;0.88;100.00;96021.03;5070050;27;101990;-54
2022/01/06 02:06:41;;;;;;;1.20;1.00;;;;;;;0.90;100.00;96019.00;5069632;27;105504;-50
2022/01/06 02:09:09;;;;;;;1.27;1.03;;;;;;;0.90;100.00;96024.22;5070551;27;102602;-56
2022/01/06 02:14:59;;;;;;;3.23;1.33;;;;;;;0.90;100.00;96019.00;5069006;27;104257;-51
2022/01/06 02:17:28;;;;;;;3.57;1.43;;;;;;;0.90;100.00;96011.13;5069854;27;101870;-50
2022/01/06 02:19:58;;;;;;;2.10;1.20;;;;;;;0.90;100.00;96024.22;5069486;27;105646;-51
2022/01/06 02:22:25;;;;;;;1.87;1.43;;;;;;;0.91;100.00;96021.41;5068937;27;105325;-53
2022/01/06 02:24:54;;;;;;;2.20;1.20;;;;;;;0.94;100.00;96020.22;5069406;27;101909;-52
2022/01/06 02:27:55;;;;;;;4.03;1.10;;;;;;;0.96;100.00;96023.44;5069618;27;105143;-54
2022/01/06 02:30:24;;;;;;;2.23;1.00;;;;;;;0.99;100.00;96034.31;5069104;27;105299;-52
2022/01/06 02:32:53;;;;;;;3.50;1.27;;;;;;;1.02;100.00;96025.25;5069540;27;101932;-53
2022/01/06 02:35:23;;;;;;;1.33;0.93;;;;;;;1.00;100.00;96025.44;5072231;27;105129;-54
2022/01/06 02:37:50;;;;;;;2.63;1.50;;;;;;;0.94;100.00;96028.06;5072108;27;101902;-54
2022/01/06 02:40:20;;;;;;;2.83;1.30;;;;;;;0.94;100.00;96030.69;5072896;27;105104;-54
2022/01/06 02:42:50;;;;;;;1.50;1.30;;;;;;;0.93;100.00;96036.94;5072251;27;105111;-55
2022/01/06 02:45:18;;;;;;;1.93;1.40;;;;;;;0.91;100.00;96036.31;5072926;27;102060;-54
2022/01/06 02:47:47;;;;;;;1.93;1.30;;;;;;;0.92;100.00;96033.50;5074253;27;102587;-56
2022/01/06 02:50:17;;;;;;;1.57;1.30;;;;;;;0.88;100.00;96031.47;5071955;27;105330;-53
2022/01/06 02:52:46;;;;;;;2.43;1.50;;;;;;;0.84;100.00;96043.34;5052567;27;101893;-52
2022/01/06 02:55:15;;;;;;;1.43;1.33;;;;;;;0.82;100.00;96040.13;5070475;27;105235;-54
2022/01/06 02:57:47;;;;;;;1.70;1.33;;;;;;;0.87;100.00;96042.94;5072853;27;102081;-54
2022/01/06 03:00:16;;;;;;;3.30;1.83;;;;;;;0.87;100.00;96046.38;5072574;27;105647;-55
2022/01/06 03:02:46;;;;;;;1.87;1.47;;;;;;;0.83;100.00;96044.34;5071958;27;103860;-53
2022/01/06 03:05:14;;;;;;;1.93;1.30;;;;;;;0.83;100.00;96039.13;5072425;27;101961;-55
2022/01/06 03:07:48;;;;;;;2.50;1.50;;;;;;;0.86;100.00;96042.16;5072811;27;105158;-54
2022/01/06 03:10:17;;;;;;;1.40;1.30;;;;;;;0.90;100.00;96045.97;5071807;27;103685;-54
2022/01/06 03:12:45;;;;;;;3.13;1.23;;;;;;;1.02;100.00;96051.41;5072522;27;101918;-53
2022/01/06 03:15:15;;;;;;;1.83;0.87;;;;;;;1.08;100.00;96058.47;5072102;27;104274;-55
2022/01/06 03:17:47;;;;;;;2.20;1.17;;;;;;;1.09;100.00;96055.66;5075449;27;105966;-53
2022/01/06 03:20:15;;;;;;;1.80;0.83;;;;;;;1.15;100.00;96051.47;5072063;27;106462;-50
2022/01/06 03:22:42;;;;;;;0.80;0.80;;;;;;;1.21;100.00;96054.06;5071595;27;105543;-54
2022/01/06 03:25:13;;;;;;;1.00;0.90;;;;;;;1.27;100.00;96057.69;5072084;27;101898;-55
2022/01/06 03:27:53;;;;;;;0.80;0.80;;;;;;;1.27;100.00;96065.56;5072463;27;105160;-53
2022/01/06 03:30:22;;;;;;;0.97;0.83;;;;;;;1.27;100.00;96057.69;5071236;27;105223;-55
2022/01/06 03:32:50;;;;;;;1.27;0.97;;;;;;;1.28;100.00;96056.69;5072102;27;101852;-55
2022/01/06 03:35:20;;;;;;;1.90;0.93;;;;;;;1.30;100.00;96059.91;5071997;27;105260;-51
2022/01/06 03:37:48;;;;;;;2.07;0.80;;;;;;;1.33;100.00;96060.34;5071232;27;104945;-53
2022/01/06 03:40:17;;;;;;;0.97;0.87;;;;;;;1.33;100.00;96062.13;5075439;27;101909;-54
2022/01/06 03:42:44;;;;;;;0.93;0.83;;;;;;;1.36;100.00;96061.72;5071388;27;105323;-53
2022/01/06 03:45:15;;;;;;;2.03;0.93;;;;;;;1.35;100.00;96073.19;5071823;27;101864;-55
2022/01/06 03:47:42;;;;;;;1.40;1.00;;;;;;;1.37;100.00;96073.81;5073162;27;102354;-54
2022/01/06 03:50:11;;;;;;;1.83;0.80;;;;;;;1.36;100.00;96075.63;5071236;27;105899;-53
2022/01/06 03:52:39;;;;;;;0.87;0.60;;;;;;;1.37;100.00;96071.22;5071835;27;101881;-54
2022/01/06 03:55:10;;;;;;;1.90;1.13;;;;;;;1.41;100.00;96072.41;5071619;27;105505;-53
2022/01/06 03:57:42;;;;;;;1.10;0.73;;;;;;;1.39;100.00;96085.72;5072843;27;102728;-54
2022/01/06 04:00:12;;;;;;;1.03;1.00;;;;;;;1.40;100.00;96079.47;5071611;27;101903;-53
2022/01/06 04:02:43;;;;;;;0.80;0.80;;;;;;;1.40;100.00;96076.03;5074736;27;102874;-55
2022/01/06 04:05:11;;;;;;;3.13;1.37;;;;;;;1.42;100.00;96087.13;5071699;27;101885;-55
2022/01/06 04:07:49;;;;;;;1.23;0.80;;;;;;;1.45;100.00;96076.22;5073262;27;102382;-54
2022/01/06 04:10:16;;;;;;;1.83;1.00;;;;;;;1.44;100.00;96083.31;5070954;27;105887;-55
2022/01/06 04:12:45;;;;;;;1.43;0.80;;;;;;;1.47;100.00;96082.06;5071869;27;101913;-55
2022/01/06 04:15:14;;;;;;;2.67;0.80;;;;;;;1.54;100.00;96078.44;5071612;27;104035;-52
2022/01/06 04:17:45;;;;;;;1.17;0.67;;;;;;;1.58;100.00;96081.50;5071070;27;105539;-52
2022/01/06 04:20:13;;;;;;;2.43;1.03;;;;;;;1.59;100.00;96083.88;5078856;27;101899;-55
2022/01/06 04:22:40;;;;;;;0.77;0.70;;;;;;;1.58;100.00;96078.88;5051197;27;104746;-55
2022/01/06 04:25:07;;;;;;;0.80;0.80;;;;;;;1.59;100.00;96083.09;5074084;27;103790;-50
2022/01/06 04:28:07;;;;;;;1.33;0.60;;;;;;;1.61;100.00;96088.94;5071524;27;104185;-53
2022/01/06 04:30:34;;;;;;;2.30;0.93;;;;;;;1.59;100.00;96083.88;5060975;27;103772;-55
2022/01/06 04:33:02;;;;;;;1.57;1.40;;;;;;;1.60;100.00;96087.31;5072221;27;101804;-51
2022/01/06 04:35:29;;;;;;;1.60;0.70;;;;;;;1.62;100.00;96093.16;5071443;27;104855;-53
2022/01/06 04:37:56;;;;;;;2.10;1.00;;;;;;;1.59;100.00;96093.59;5070203;27;104018;-55
2022/01/06 04:40:50;;;;;;;1.10;1.00;;;;;;;1.62;100.00;96103.63;5071293;27;101818;-54
2022/01/06 04:43:19;;;;;;;1.27;0.80;;;;;;;1.62;100.00;96099.22;5066645;27;103758;-55
2022/01/06 04:45:46;;;;;;;1.90;0.83;;;;;;;1.63;100.00;96105.25;5070510;27;105709;-51
2022/01/06 04:48:19;;;;;;;1.83;1.10;;;;;;;1.66;100.00;96110.09;5074448;27;101779;-54
2022/01/06 04:50:46;;;;;;;1.33;1.10;;;;;;;1.67;100.00;96101.22;5070632;27;105824;-54
2022/01/06 04:53:13;;;;;;;0.80;0.80;;;;;;;1.69;100.00;96112.34;5070418;27;102112;-54
2022/01/06 04:55:40;;;;;;;0.60;0.60;;;;;;;1.68;100.00;96113.31;5061778;27;105085;-53
2022/01/06 04:58:08;;;;;;;0.83;0.80;;;;;;;1.68;100.00;96116.75;5070420;27;105414;-54
2022/01/06 05:00:37;;;;;;;1.00;0.90;;;;;;;1.69;100.00;96120.97;5069814;27;101793;-55
2022/01/06 05:03:04;;;;;;;2.60;1.10;;;;;;;1.70;100.00;96124.41;5070835;27;105247;-53
2022/01/06 05:05:31;;;;;;;4.40;1.53;;;;;;;1.74;100.00;96117.75;5069580;27;105379;-54
2022/01/06 05:08:01;;;;;;;0.80;0.80;;;;;;;1.70;100.00;96122.59;5074103;27;101712;-51
2022/01/06 05:10:37;;;;;;;1.00;0.93;;;;;;;1.70;100.00;96121.81;5069936;27;106404;-52
2022/01/06 05:13:04;;;;;;;1.03;0.70;;;;;;;1.72;100.00;96123.22;5070833;27;101925;-54
2022/01/06 05:15:31;;;;;;;1.27;1.10;;;;;;;1.73;100.00;96129.25;5070627;27;105049;-55
2022/01/06 05:18:19;;;;;;;0.87;0.87;;;;;;;1.70;100.00;96132.28;5071439;27;102922;-54
2022/01/06 05:20:46;;;;;;;3.13;1.00;;;;;;;1.72;100.00;96136.31;5070617;27;101689;-53
2022/01/06 05:23:14;;;;;;;1.33;1.10;;;;;;;1.69;100.00;96138.53;5071723;27;102690;-53
2022/01/06 05:25:41;;;;;;;2.00;1.17;;;;;;;1.68;100.00;96137.72;5069857;27;105330;-53
2022/01/06 05:28:19;;;;;;;1.53;1.43;;;;;;;1.66;100.00;96146.78;5071581;27;101968;-54
2022/01/06 05:30:46;;;;;;;1.90;1.10;;;;;;;1.61;100.00;96142.16;5073279;27;103146;-55
2022/01/06 05:33:14;;;;;;;1.33;0.83;;;;;;;1.62;100.00;96143.78;5070206;27;103274;-53
2022/01/06 05:35:42;;;;;;;1.50;1.00;;;;;;;1.59;100.00;96135.50;5070115;27;104972;-55
2022/01/06 05:38:09;;;;;;;2.77;0.87;;;;;;;1.50;100.00;96137.53;5069224;27;106074;-53
2022/01/06 05:40:38;;;;;;;1.53;0.90;;;;;;;1.50;100.00;96126.22;5069995;27;102162;-55
2022/01/06 05:43:05;;;;;;;2.17;1.10;;;;;;;1.46;100.00;96133.69;5070185;27;105113;-53
2022/01/06 05:45:32;;;;;;;1.47;1.00;;;;;;;1.43;100.00;96141.13;5068967;27;104308;-54
2022/01/06 05:48:06;;;;;;;1.77;0.90;;;;;;;1.41;100.00;96140.50;5070072;27;101955;-54
2022/01/06 05:50:33;;;;;;;1.30;1.17;;;;;;;1.44;100.00;96142.75;5070011;27;105223;-55
2022/01/06 05:53:01;;;;;;;1.77;0.90;;;;;;;1.46;100.00;96145.97;5072937;27;104981;-54
2022/01/06 05:55:28;;;;;;;0.97;0.97;;;;;;;1.46;100.00;96138.09;5069870;27;105436;-54
2022/01/06 05:58:44;;;;;;;1.20;0.80;;;;;;;1.49;100.00;96137.72;5048947;27;105759;-51
2022/01/06 06:01:11;;;;;;;1.70;1.20;;;;;;;1.47;100.00;96153.63;5062299;27;101880;-54
2022/01/06 06:03:38;;;;;;;0.90;0.90;;;;;;;1.49;100.00;96151.59;5051227;27;102354;-53
2022/01/06 06:06:05;;;;;;;2.20;1.00;;;;;;;1.50;100.00;96161.09;5063842;27;106429;-53
2022/01/06 06:08:37;;;;;;;1.67;0.93;;;;;;;1.52;100.00;96161.69;5071483;27;101931;-54
2022/01/06 06:11:04;;;;;;;1.57;1.10;;;;;;;1.50;100.00;96166.34;5068317;27;104802;-54
2022/01/06 06:13:31;;;;;;;0.93;0.80;;;;;;;1.51;100.00;96167.13;5069229;27;105542;-55
2022/01/06 06:15:58;;;;;;;2.00;1.07;;;;;;;1.51;100.00;96169.75;5073084;27;102263;-54
2022/01/06 06:18:25;;;;;;;1.70;1.00;;;;;;;1.52;100.00;96166.13;5069235;27;105183;-52
2022/01/06 06:20:52;;;;;;;0.73;0.73;;;;;;;1.53;100.00;96170.38;5070571;27;102298;-56
2022/01/06 06:23:19;;;;;;;0.87;0.80;;;;;;;1.55;100.00;96168.34;5069504;27;105228;-54
2022/01/06 06:25:48;;;;;;;1.00;0.90;;;;;;;1.53;100.00;96173.00;5068999;27;105662;-55
2022/01/06 06:28:31;;;;;;;2.70;0.97;;;;;;;1.52;100.00;96176.59;5069475;27;101850;-56
2022/01/06 06:30:59;;;;;;;1.30;0.80;;;;;;;1.50;100.00;96171.56;5069638;27;105062;-56
2022/01/06 06:33:26;;;;;;;1.40;0.90;;;;;;;1.49;100.00;96172.56;5069011;27;105626;-55
2022/01/06 06:35:53;;;;;;;1.10;0.90;;;;;;;1.50;100.00;96168.97;5069442;27;101890;-56
2022/01/06 06:38:25;;;;;;;2.00;0.80;;;;;;;1.51;100.00;96177.59;5072258;27;104975;-54
2022/01/06 06:40:58;;;;;;;2.60;1.20;;;;;;;1.52;100.00;96166.94;5069362;27;101764;-55
2022/01/06 06:43:25;;;;;;;1.17;0.90;;;;;;;1.51;100.00;96172.38;5069461;27;104880;-56
2022/01/06 06:45:52;;;;;;;1.73;1.00;;;;;;;1.52;100.00;96177.41;5070306;27;102936;-56
2022/01/06 06:48:25;;;;;;;1.37;1.00;;;;;;;1.53;100.00;96173.00;5070724;27;101789;-56
2022/01/06 06:50:52;;;;;;;1.10;1.00;;;;;;;1.56;100.00;96178.63;5069208;27;104637;-56
2022/01/06 06:53:19;;;;;;;1.97;0.90;;;;;;;1.60;100.00;96173.81;5068560;27;106503;-55
2022/01/06 06:55:46;;;;;;;1.80;0.80;;;;;;;1.63;100.00;96181.25;5069076;27;102001;-56
2022/01/06 06:58:30;;;;;;;0.90;0.90;;;;;;;1.65;100.00;96187.13;5069098;27;105018;-54
2022/01/06 07:00:58;;;;;;;1.10;1.00;;;;;;;1.66;100.00;96194.78;5071480;27;101891;-56
2022/01/06 07:03:24;;;;;;;2.40;1.10;;;;;;;1.70;100.00;96195.97;5069036;27;104796;-56
2022/01/06 07:05:51;;;;;;;2.57;1.10;;;;;;;1.73;100.00;96200.84;5068206;27;105234;-56
2022/01/06 07:08:26;;;;;;;1.87;1.00;;;;;;;1.75;100.00;96203.25;5068998;27;103145;-56
2022/01/06 07:11:12;;;;;;;0.87;0.87;;;;;;;1.78;100.00;96211.53;5069002;27;105131;-55
2022/01/06 07:13:40;;;;;;;1.47;0.90;;;;;;;1.80;100.00;96217.34;5068378;27;105716;-54
2022/01/06 07:16:07;;;;;;;1.10;1.00;;;;;;;1.82;100.00;96211.94;5068808;27;101914;-54
2022/01/06 07:18:41;;;;;;;1.20;0.80;;;;;;;1.84;100.00;96223.00;5068914;27;105147;-57
2022/01/06 07:21:08;;;;;;;1.00;0.87;;;;;;;1.84;100.00;96229.06;5071825;27;106301;-56
2022/01/06 07:23:34;;;;;;;2.77;1.00;;;;;;;1.85;100.00;96225.44;5071357;27;104389;-56
2022/01/06 07:26:01;;;;;;;1.07;1.00;;;;;;;1.86;100.00;96229.66;5071753;27;105317;-63
2022/01/06 07:31:52;;;;;;;0.80;0.80;;;;;;;1.86;100.00;96228.88;5072320;27;105605;-59
2022/01/06 07:34:19;;;;;;;0.93;0.93;;;;;;;1.83;100.00;96226.63;5071729;27;103842;-59
2022/01/06 07:36:47;;;;;;;0.80;0.80;;;;;;;1.82;100.00;96230.28;5071982;27;102166;-59
2022/01/06 07:39:13;;;;;;;0.70;0.70;;;;;;;1.85;100.00;96224.63;5072305;27;105563;-59
2022/01/06 07:42:24;;;;;;;0.90;0.83;;;;;;;1.85;100.00;96235.09;5071686;27;105815;-59
2022/01/06 07:44:51;;;;;;;1.93;1.23;;;;;;;1.84;100.00;96234.31;5075517;27;101967;-59
2022/01/06 07:47:42;;;;;;;1.33;1.00;;;;;;;1.87;100.00;96233.09;5071470;27;105798;-59
2022/01/06 07:50:10;;;;;;;1.80;1.00;;;;;;;1.86;100.00;96239.38;5072050;27;101767;-59
2022/01/06 07:52:37;;;;;;;1.53;1.27;;;;;;;1.87;100.00;96239.13;5072089;27;104749;-60
2022/01/06 07:55:04;;;;;;;2.70;1.60;;;;;;;1.91;100.00;96242.19;5071212;27;105948;-60
2022/01/06 07:57:47;;;;;;;2.77;1.60;;;;;;;1.96;100.00;96258.09;5072038;27;101922;-60
2022/01/06 08:00:15;;;;;;;3.47;2.20;;;;;;;1.94;100.00;96250.47;5071836;27;105624;-60
2022/01/06 08:02:43;;;;;;;1.00;1.00;;;;;;;1.97;100.00;96257.13;5072524;27;103086;-60
2022/01/06 08:05:12;;;;;;;0.90;0.90;;;;;;;2.05;100.00;96257.72;5073211;27;102188;-60
2022/01/06 08:07:40;;;;;;;2.30;1.00;;;;;;;2.03;100.00;96253.69;5074765;27;105135;-61
2022/01/06 08:10:09;;;;;;;1.23;1.00;;;;;;;2.02;100.00;96257.34;5071825;27;101783;-59
2022/01/06 08:12:39;;;;;;;2.00;1.20;;;;;;;2.03;100.00;96262.34;5071728;27;105171;-61
2022/01/06 08:15:07;;;;;;;1.53;1.13;;;;;;;2.04;100.00;96278.91;5071002;27;105636;-63
2022/01/06 08:18:21;;;;;;;1.20;1.10;;;;;;;2.04;100.00;96282.34;5071629;27;101866;-60
2022/01/06 08:20:50;;;;;;;1.33;0.90;;;;;;;2.05;100.00;96294.44;5071552;27;104890;-61
2022/01/06 08:23:17;;;;;;;1.80;1.17;;;;;;;2.03;100.00;96299.06;5070913;27;104071;-60
2022/01/06 08:25:44;;;;;;;2.97;1.20;;;;;;;1.94;100.00;96308.16;5071413;27;101901;-60
2022/01/06 08:28:13;;;;;;;2.00;1.20;;;;;;;1.78;100.00;96312.94;5071406;27;104867;-60
2022/01/06 08:30:41;;;;;;;3.00;1.23;;;;;;;1.31;100.00;96316.41;5074152;27;105250;-61
2022/01/06 08:33:08;;;;;;;3.00;1.30;;;;;;;0.94;100.00;96326.47;5071362;27;105422;-60
2022/01/06 08:35:35;;;;;;;1.10;1.00;;;;;;;0.77;100.00;96327.78;5069437;27;105407;-60
2022/01/06 08:38:07;;;;;;;1.40;1.20;;;;;;;0.62;100.00;96330.47;5070738;27;101936;-60
2022/01/06 08:40:45;;;;;;;1.43;1.20;;;;;;;0.58;100.00;96331.06;5070860;27;105517;-60
2022/01/06 08:43:12;;;;;;;3.70;1.60;;;;;;;0.62;100.00;96325.25;5070242;27;105221;-60
2022/01/06 08:45:41;;;;;;;4.23;2.30;;;;;;;0.63;100.00;96326.06;5070871;27;102152;-60
2022/01/06 08:48:12;;;;;;;2.47;2.17;;;;;;;0.76;100.00;96336.59;5071067;27;105254;-60
2022/01/06 08:50:39;;;;;;;2.90;2.00;;;;;;;0.71;100.00;96331.16;5070445;27;105303;-60
2022/01/06 08:53:08;;;;;;;2.77;1.53;;;;;;;0.87;100.00;96339.53;5074380;27;101890;-60
2022/01/06 08:55:35;;;;;;;2.90;1.50;;;;;;;0.82;100.00;96341.91;5070088;27;105087;-60
2022/01/06 08:58:14;;;;;;;1.27;1.27;;;;;;;0.73;100.00;96342.25;5070836;27;101937;-60
2022/01/06 09:00:41;;;;;;;1.67;1.40;;;;;;;0.77;100.00;96351.34;5072142;27;102330;-60
2022/01/06 09:03:09;;;;;;;2.87;1.60;;;;;;;0.84;100.00;96349.56;5070297;27;105207;-60
2022/01/06 09:05:36;;;;;;;2.87;1.63;;;;;;;0.91;100.00;96350.41;5070487;27;101946;-60
2022/01/06 09:08:16;;;;;;;1.57;1.40;;;;;;;0.92;100.00;96357.25;5070426;27;105514;-61
2022/01/06 09:11:18;;;;;;;2.20;1.33;;;;;;;1.14;100.00;96345.72;5070038;27;104389;-60
2022/01/06 09:13:45;;;;;;;1.97;1.40;;;;;;;1.17;100.00;96351.41;5074207;27;101851;-60
2022/01/06 09:16:13;;;;;;;1.50;1.40;;;;;;;1.21;100.00;96349.19;5068754;27;105301;-60
2022/01/06 09:18:41;;;;;;;2.60;1.43;;;;;;;1.28;100.00;96357.88;5069715;27;101968;-60
2022/01/06 09:21:10;;;;;;;4.73;3.33;;;;;;;1.32;100.00;96353.88;5071146;27;102388;-60
2022/01/06 09:23:38;;;;;;;3.00;1.67;;;;;;;1.38;100.00;96358.34;5069255;27;105612;-60
2022/01/06 09:26:05;;;;;;;1.67;1.50;;;;;;;1.32;100.00;96353.88;5071981;27;101830;-60
2022/01/06 09:28:33;;;;;;;2.43;1.50;;;;;;;1.43;100.00;96348.88;5069759;27;105089;-60
2022/01/06 09:31:00;;;;;;;0.93;0.93;;;;;;;1.39;100.00;96350.31;5068438;27;105865;-60
2022/01/06 09:33:27;;;;;;;2.17;1.30;;;;;;;1.41;100.00;96347.47;5069882;27;101927;-60
2022/01/06 09:35:54;;;;;;;2.20;1.20;;;;;;;1.45;100.00;96353.94;5072980;27;105486;-60
2022/01/06 09:38:22;;;;;;;1.97;1.60;;;;;;;1.51;100.00;96361.03;5069559;27;101997;-60
2022/01/06 09:40:50;;;;;;;1.03;1.03;;;;;;;1.56;100.00;96367.31;5069844;27;105266;-60
2022/01/06 09:43:25;;;;;;;2.97;1.47;;;;;;;1.56;100.00;96375.16;5068607;27;105760;-60
2022/01/06 09:45:52;;;;;;;1.23;1.00;;;;;;;1.64;100.00;96382.06;5071331;27;101652;-60
2022/01/06 09:48:21;;;;;;;1.67;1.30;;;;;;;1.63;100.00;96383.03;5071439;27;102851;-60
2022/01/06 09:50:48;;;;;;;2.03;1.43;;;;;;;1.81;100.00;96383.34;5069317;27;104016;-60
2022/01/06 09:53:15;;;;;;;1.70;1.30;;;;;;;1.87;100.00;96379.91;5069797;27;102011;-60
2022/01/06 09:55:41;;;;;;;2.40;1.70;;;;;;;1.88;100.00;96376.28;5069778;27;106212;-60
2022/01/06 09:58:10;;;;;;;2.00;1.60;;;;;;;1.86;100.00;96384.34;5072252;27;105376;-60
2022/01/06 10:00:37;;;;;;;3.17;1.60;;;;;;;2.05;100.00;96382.78;5069660;27;105150;-60
2022/01/06 10:03:06;;;;;;;2.57;1.50;;;;;;;1.87;100.00;96375.47;5069100;27;105697;-60
2022/01/06 10:05:41;;;;;;;1.80;1.30;;;;;;;1.91;100.00;96375.91;5069765;27;101998;-60
2022/01/06 10:08:09;;;;;;;1.50;1.30;;;;;;;1.90;100.00;96382.13;5069634;27;104756;-62
2022/01/06 10:10:37;;;;;;;1.87;1.20;;;;;;;2.08;100.00;96390.28;5068690;27;105388;-61
2022/01/06 10:13:07;;;;;;;1.60;1.50;;;;;;;2.06;100.00;96392.28;5070950;27;101797;-60
2022/01/06 10:15:37;;;;;;;2.43;1.20;;;;;;;2.03;100.00;96393.47;5069497;27;106331;-60
2022/01/06 10:18:13;;;;;;;1.37;1.20;;;;;;;2.16;100.00;96395.34;5069029;27;104046;-60
2022/01/06 10:20:40;;;;;;;1.87;1.20;;;;;;;2.16;100.00;96397.97;5074186;27;101824;-60
2022/01/06 10:23:13;;;;;;;1.37;1.27;;;;;;;2.02;100.00;96396.31;5070156;27;102661;-60
2022/01/06 10:25:46;;;;;;;6.00;3.23;;;;;;;2.21;100.00;96395.56;5070935;27;101763;-61
2022/01/06 10:28:17;;;;;;;2.23;1.53;;;;;;;2.23;100.00;96396.16;5069399;27;106059;-60
2022/01/06 10:30:49;;;;;;;2.70;2.00;;;;;;;2.34;100.00;96399.00;5068561;27;105451;-61
2022/01/06 10:33:17;;;;;;;2.57;1.60;;;;;;;2.27;100.00;96397.38;5070691;27;101648;-61
2022/01/06 10:35:44;;;;;;;1.53;1.20;;;;;;;2.31;100.00;96399.44;5069354;27;105514;-61
2022/01/06 10:38:12;;;;;;;1.47;1.33;;;;;;;2.36;100.00;96401.44;5069810;27;102470;-61
2022/01/06 10:40:40;;;;;;;2.73;2.00;;;;;;;2.35;100.00;96399.84;5069478;27;101820;-61
2022/01/06 10:43:06;;;;;;;1.60;1.50;;;;;;;2.39;100.00;96395.78;5071705;27;105771;-60
2022/01/06 10:45:35;;;;;;;2.67;2.03;;;;;;;2.54;100.00;96404.28;5070732;27;101834;-60
2022/01/06 10:48:05;;;;;;;1.63;1.50;;;;;;;2.47;100.00;96404.28;5069133;27;105515;-61
2022/01/06 10:50:34;;;;;;;2.50;1.47;;;;;;;2.38;100.00;96408.09;5068319;27;105547;-60
2022/01/06 10:53:02;;;;;;;2.87;1.67;;;;;;;2.43;100.00;96402.25;5070538;27;102069;-60
2022/01/06 10:55:31;;;;;;;6.67;2.50;;;;;;;2.43;100.00;96412.75;5070371;27;102875;-60
2022/01/06 10:58:02;;;;;;;2.37;1.70;;;;;;;2.43;100.00;96408.31;5071274;27;103023;-61
2022/01/06 11:00:32;;;;;;;5.50;3.60;;;;;;;2.49;100.00;96410.16;5073947;27;101870;-60
2022/01/06 11:03:09;;;;;;;2.83;2.00;;;;;;;2.43;100.00;96404.88;5072278;27;104875;-60
2022/01/06 11:05:37;;;;;;;2.97;1.70;;;;;;;2.49;100.00;96401.44;5075363;27;103968;-60
2022/01/06 11:08:05;;;;;;;3.10;1.77;;;;;;;2.50;100.00;96408.31;5072482;27;105261;-61
2022/01/06 11:10:36;;;;;;;28.93;16.07;;;;;;;2.54;100.00;96405.09;5071814;27;104296;-60
2022/01/06 11:13:04;;;;;;;14.23;8.20;;;;;;;2.52;100.00;96416.81;5071348;27;101894;-60
2022/01/06 11:15:31;;;;;;;4.87;2.60;;;;;;;2.51;100.00;96420.44;5073507;27;102376;-60
2022/01/06 11:18:00;;;;;;;2.77;1.80;;;;;;;2.54;100.00;96417.41;5071619;27;105658;-60
2022/01/06 11:20:30;;;;;;;4.97;2.47;;;;;;;2.55;100.00;96421.66;5072201;27;101843;-60
2022/01/06 11:22:59;;;;;;;5.87;3.23;;;;;;;2.64;100.00;96418.66;5071774;27;105079;-60
2022/01/06 11:25:35;;;;;;;4.60;2.50;;;;;;;2.68;100.00;96414.59;5075010;27;105480;-60
2022/01/06 11:28:08;;;;;;;3.00;2.10;;;;;;;2.57;100.00;96419.66;5072090;27;105239;-60
2022/01/06 11:30:45;;;;;;;2.37;2.00;;;;;;;2.63;100.00;96416.22;5071474;27;104970;-61
2022/01/06 11:33:13;;;;;;;2.30;2.03;;;;;;;2.57;100.00;96420.44;5073594;27;101710;-60
2022/01/06 11:35:53;;;;;;;2.87;1.77;;;;;;;2.48;100.00;96426.09;5071871;27;105248;-60
2022/01/06 11:38:25;;;;;;;6.17;3.47;;;;;;;2.47;100.00;96427.09;5071047;27;104299;-60
2022/01/06 11:40:53;;;;;;;3.37;2.40;;;;;;;2.49;100.00;96423.28;5072027;27;101960;-60
2022/01/06 11:43:21;;;;;;;2.10;1.90;;;;;;;2.43;100.00;96421.44;5073128;27;102674;-60
2022/01/06 11:45:49;;;;;;;2.90;2.63;;;;;;;2.49;100.00;96428.53;5071100;27;104257;-60
2022/01/06 11:48:17;;;;;;;4.03;2.60;;;;;;;2.47;100.00;96427.09;5075340;27;102271;-60
2022/01/06 11:50:46;;;;;;;3.23;2.27;;;;;;;2.44;100.00;96437.97;5071243;27;104917;-60